createdAt,value
2019-03-25T00:09:04.580Z,93.00
2019-03-25T00:23:53.644Z,93.70
2019-03-25T00:38:56.461Z,94.20
2019-03-25T00:53:59.238Z,95.00
2019-03-25T01:09:02.019Z,95.30
2019-03-25T01:24:04.802Z,95.20
2019-03-25T01:39:08.362Z,94.70
2019-03-25T01:54:11.157Z,95.00
2019-03-25T02:09:13.940Z,95.10
2019-03-25T02:24:16.746Z,95.20
2019-03-25T02:39:19.528Z,95.40
2019-03-25T02:54:22.310Z,95.00
2019-03-25T03:09:25.114Z,94.50
2019-03-25T03:24:27.874Z,93.70
2019-03-25T03:39:30.649Z,94.40
2019-03-25T03:54:33.421Z,96.70
2019-03-25T04:09:36.217Z,97.70
2019-03-25T04:24:39.017Z,98.50
2019-03-25T04:39:41.802Z,99.60
2019-03-25T04:54:44.590Z,99.90
2019-03-25T05:09:48.166Z,99.90
2019-03-25T05:24:50.945Z,99.90
2019-03-25T05:39:53.736Z,99.90
2019-03-25T05:54:56.510Z,99.90
2019-03-25T06:09:59.340Z,99.90
2019-03-25T06:25:02.122Z,99.90
2019-03-25T06:40:04.897Z,99.90
2019-03-25T06:55:07.698Z,99.90
2019-03-25T07:10:10.492Z,99.90
2019-03-25T07:25:13.283Z,98.50
2019-03-25T07:40:16.080Z,98.30
2019-03-25T07:55:18.856Z,98.30
2019-03-25T08:10:24.279Z,98.00
2019-03-25T08:25:27.059Z,96.00
2019-03-25T08:40:29.848Z,93.70
2019-03-25T08:55:34.464Z,92.50
2019-03-25T09:10:37.535Z,91.40
2019-03-25T09:25:40.359Z,90.20
2019-03-25T09:40:43.104Z,85.60
2019-03-25T09:55:45.898Z,77.90
2019-03-25T10:10:48.688Z,80.70
2019-03-25T10:25:52.040Z,80.40
2019-03-25T10:40:55.558Z,76.50
2019-03-25T10:55:58.356Z,75.50
2019-03-25T11:11:01.154Z,80.10
2019-03-25T11:26:03.936Z,77.40
2019-03-25T11:41:07.138Z,83.20
2019-03-25T11:56:09.935Z,80.60
2019-03-25T12:11:12.727Z,79.80
2019-03-25T12:26:15.516Z,74.00
2019-03-25T12:41:18.302Z,76.90
2019-03-25T12:56:21.118Z,74.90
2019-03-25T13:11:23.895Z,81.00
2019-03-25T13:26:26.670Z,70.00
2019-03-25T13:41:29.450Z,74.30
2019-03-25T13:56:32.389Z,79.70
2019-03-25T14:11:35.172Z,85.20
2019-03-25T14:26:37.970Z,84.80
2019-03-25T14:41:40.738Z,88.50
2019-03-25T14:56:43.518Z,90.90
2019-03-25T15:11:46.316Z,90.60
2019-03-25T15:26:49.105Z,89.80
2019-03-25T15:41:51.984Z,93.30
2019-03-25T15:56:54.748Z,92.90
2019-03-25T16:11:57.584Z,94.40
2019-03-25T16:27:00.371Z,94.10
2019-03-25T16:42:03.153Z,93.80
2019-03-25T16:57:05.937Z,94.00
2019-03-25T17:12:08.714Z,94.30
2019-03-25T17:27:11.510Z,94.70
2019-03-25T17:42:14.350Z,94.80
2019-03-25T17:57:17.112Z,93.90
2019-03-25T18:12:19.933Z,94.70
2019-03-25T18:27:22.727Z,94.70
2019-03-25T18:42:25.508Z,96.10
2019-03-25T18:57:28.317Z,96.20
2019-03-25T19:12:31.137Z,97.30
2019-03-25T19:27:33.914Z,97.20
2019-03-25T19:42:36.705Z,98.20
2019-03-25T19:57:39.518Z,98.80
2019-03-25T20:12:42.305Z,99.80
2019-03-25T20:27:45.136Z,99.90
2019-03-25T20:42:47.915Z,99.90
2019-03-25T20:57:50.765Z,99.90
2019-03-25T21:12:54.346Z,99.90
2019-03-25T21:27:57.245Z,99.90
2019-03-25T21:43:00.033Z,99.90
2019-03-25T21:58:02.867Z,99.60
2019-03-25T22:13:05.605Z,99.90
2019-03-25T22:28:08.401Z,99.90
2019-03-25T22:43:11.181Z,99.90
2019-03-25T22:58:14.392Z,99.90
2019-03-25T23:13:17.167Z,99.90
2019-03-25T23:28:19.946Z,99.90
2019-03-25T23:43:22.730Z,99.80
2019-03-25T23:58:25.508Z,99.90
